Time;durP1;ratioP1;P1;durP2;ratioP2;P2;SDS_P1;SDS_P2;PMS_P1;PMS_P2;Temp;Humidity;BMP_temperature;BMP_pressure;BME280_temperature;BME280_humidity;BME280_pressure;Samples;Min_cycle;Max_cycle;Signal;HPM_P1;HPM_P2
2023/12/12 00:00:29;;;;;;;6.35;1.42;;;7.10;99.90;;;;;;5116980;27;20054;-61
2023/12/12 00:03:01;;;;;;;4.70;1.45;;;7.10;99.90;;;;;;5117156;27;20035;-61
2023/12/12 00:05:27;;;;;;;5.57;1.50;;;7.00;99.90;;;;;;5116598;27;20031;-61
2023/12/12 00:07:52;;;;;;;7.85;1.77;;;7.00;99.90;;;;;;5117041;27;20172;-61
2023/12/12 00:10:18;;;;;;;8.93;2.80;;;7.00;99.90;;;;;;5116134;27;20043;-61
2023/12/12 00:12:44;;;;;;;5.57;2.03;;;6.90;99.90;;;;;;5116718;27;20130;-61
2023/12/12 00:15:10;;;;;;;8.45;2.20;;;6.90;99.90;;;;;;5117107;27;20043;-61
2023/12/12 00:17:37;;;;;;;7.90;2.05;;;6.70;99.90;;;;;;5116287;27;20043;-61
2023/12/12 00:20:04;;;;;;;5.95;1.48;;;6.80;99.90;;;;;;5117707;27;20047;-61
2023/12/12 00:22:30;;;;;;;6.35;1.85;;;6.70;99.90;;;;;;5116566;27;20531;-61
2023/12/12 00:24:55;;;;;;;6.65;1.98;;;6.70;99.90;;;;;;5099135;27;20168;-61
2023/12/12 00:27:21;;;;;;;7.53;1.88;;;6.70;99.90;;;;;;5099506;27;20125;-61
2023/12/12 00:29:47;;;;;;;6.20;1.63;;;6.70;99.90;;;;;;5116434;27;20130;-61
2023/12/12 00:32:12;;;;;;;5.45;1.55;;;6.60;99.90;;;;;;5115784;27;20130;-61
2023/12/12 00:34:40;;;;;;;4.57;1.75;;;6.60;99.90;;;;;;5116511;27;20501;-61
2023/12/12 00:37:05;;;;;;;6.28;1.85;;;6.60;99.90;;;;;;5116707;27;20510;-61
2023/12/12 00:39:35;;;;;;;5.15;1.73;;;6.60;99.90;;;;;;5098264;27;20040;-61
2023/12/12 00:42:01;;;;;;;4.43;1.83;;;6.50;99.90;;;;;;5116932;27;20039;-61
2023/12/12 00:44:27;;;;;;;6.82;2.13;;;6.50;99.90;;;;;;5116417;27;20517;-61
2023/12/12 00:46:52;;;;;;;4.50;1.70;;;6.40;99.90;;;;;;5098505;27;20125;-61
2023/12/12 00:49:18;;;;;;;5.72;1.52;;;6.40;99.90;;;;;;5116470;27;20046;-61
2023/12/12 00:51:44;;;;;;;6.07;1.60;;;6.30;99.90;;;;;;5115817;27;20035;-61
2023/12/12 00:54:09;;;;;;;9.40;2.30;;;6.30;99.90;;;;;;5114909;27;20088;-61
2023/12/12 00:56:35;;;;;;;6.82;1.98;;;6.20;99.90;;;;;;5115848;27;20049;-61
2023/12/12 00:59:01;;;;;;;6.18;1.92;;;6.20;99.90;;;;;;5115738;27;20085;-62
2023/12/12 01:01:26;;;;;;;3.83;1.20;;;6.20;99.90;;;;;;5115266;27;20193;-61
2023/12/12 01:03:52;;;;;;;6.93;2.13;;;6.10;99.90;;;;;;5112627;27;20038;-61
2023/12/12 01:06:24;;;;;;;3.80;1.30;;;6.10;99.90;;;;;;5115440;27;20039;-61
2023/12/12 01:08:51;;;;;;;8.68;2.10;;;6.00;99.90;;;;;;5132266;27;20046;-61
2023/12/12 01:11:20;;;;;;;5.85;1.33;;;6.00;99.90;;;;;;5115915;27;20046;-61
2023/12/12 01:13:46;;;;;;;9.63;1.60;;;5.90;99.90;;;;;;5131994;27;20039;-61
2023/12/12 01:16:12;;;;;;;6.72;2.38;;;5.80;99.90;;;;;;5133309;27;20080;-61
2023/12/12 01:18:38;;;;;;;9.35;2.08;;;5.80;99.90;;;;;;5118886;27;20074;-61
2023/12/12 01:21:04;;;;;;;7.30;1.92;;;5.80;99.90;;;;;;5114825;27;20050;-61
2023/12/12 01:23:54;;;;;;;7.18;1.63;;;5.80;99.90;;;;;;5133246;27;20071;-61
2023/12/12 01:26:21;;;;;;;7.28;1.85;;;5.70;99.90;;;;;;5115400;27;20043;-61
2023/12/12 01:28:48;;;;;;;6.50;1.80;;;5.60;99.90;;;;;;5114767;27;20471;-61
2023/12/12 01:31:14;;;;;;;8.88;2.50;;;5.60;99.90;;;;;;5098783;27;20097;-61
2023/12/12 01:33:41;;;;;;;7.72;1.75;;;5.60;99.90;;;;;;5115163;27;20042;-61
2023/12/12 01:36:07;;;;;;;3.53;1.35;;;5.50;99.90;;;;;;5114608;27;20042;-61
2023/12/12 01:38:32;;;;;;;7.07;1.70;;;5.50;99.90;;;;;;5115047;27;20104;-61
2023/12/12 01:40:58;;;;;;;3.45;1.40;;;5.50;99.90;;;;;;5115349;27;20035;-61
2023/12/12 01:43:29;;;;;;;4.47;1.98;;;5.40;99.90;;;;;;5114761;27;20121;-61
2023/12/12 01:45:58;;;;;;;4.32;1.33;;;5.30;99.90;;;;;;5115287;27;20054;-61
2023/12/12 01:48:24;;;;;;;4.63;1.30;;;5.30;99.90;;;;;;5114809;27;20078;-61
2023/12/12 01:50:51;;;;;;;4.40;1.50;;;5.30;99.90;;;;;;5114396;27;20543;-61
2023/12/12 01:53:37;;;;;;;4.88;1.95;;;5.20;99.90;;;;;;5114870;27;20496;-61
2023/12/12 01:56:04;;;;;;;5.05;1.42;;;5.20;99.90;;;;;;5114248;27;20155;-60
2023/12/12 01:58:31;;;;;;;7.13;1.30;;;5.20;99.90;;;;;;5133015;27;20084;-61
2023/12/12 02:00:57;;;;;;;9.55;2.70;;;5.10;99.90;;;;;;5115061;27;20057;-61
2023/12/12 02:03:24;;;;;;;6.72;1.63;;;5.00;99.90;;;;;;5096590;27;20074;-61
2023/12/12 02:05:50;;;;;;;3.85;1.27;;;5.00;99.90;;;;;;5114775;27;20051;-60
2023/12/12 02:08:16;;;;;;;5.70;2.10;;;4.90;99.90;;;;;;5114811;27;20068;-60
2023/12/12 02:10:42;;;;;;;3.88;1.30;;;4.80;99.90;;;;;;5113886;28;20053;-60
2023/12/12 02:13:08;;;;;;;5.15;1.42;;;4.80;99.90;;;;;;5133355;27;20039;-60
2023/12/12 02:15:34;;;;;;;4.15;1.33;;;4.70;99.90;;;;;;5098284;28;20043;-61
2023/12/12 02:17:59;;;;;;;3.25;1.30;;;4.70;99.90;;;;;;5114185;28;20035;-60
2023/12/12 02:20:25;;;;;;;5.70;1.50;;;4.60;99.90;;;;;;5114596;28;20191;-60
2023/12/12 02:22:51;;;;;;;3.65;1.58;;;4.60;99.90;;;;;;5114621;28;20460;-60
2023/12/12 02:25:17;;;;;;;6.45;1.40;;;4.60;99.90;;;;;;5132212;28;20092;-60
2023/12/12 02:27:43;;;;;;;4.53;1.55;;;4.50;99.90;;;;;;5126274;28;20043;-60
2023/12/12 02:30:11;;;;;;;5.38;1.50;;;4.50;99.90;;;;;;5129701;28;20465;-60
2023/12/12 02:32:36;;;;;;;5.75;1.75;;;4.50;99.90;;;;;;5131110;28;20043;-60
2023/12/12 02:35:02;;;;;;;8.63;2.40;;;4.50;99.90;;;;;;5131940;28;20070;-61
2023/12/12 02:37:28;;;;;;;7.60;2.38;;;4.50;99.90;;;;;;5129670;28;20046;-60
2023/12/12 02:39:54;;;;;;;4.53;1.58;;;4.50;99.90;;;;;;5114019;28;20039;-60
2023/12/12 02:42:19;;;;;;;5.20;1.42;;;4.40;99.90;;;;;;5114576;28;20384;-61
2023/12/12 02:44:45;;;;;;;11.02;1.80;;;4.40;99.90;;;;;;5132916;28;20054;-60
2023/12/12 02:47:11;;;;;;;4.32;1.38;;;4.40;99.90;;;;;;5113894;28;20043;-60
2023/12/12 02:49:36;;;;;;;5.95;2.00;;;4.20;99.90;;;;;;5132546;28;20039;-60
2023/12/12 02:52:02;;;;;;;6.60;1.83;;;4.30;99.90;;;;;;5114151;28;20080;-60
2023/12/12 02:54:28;;;;;;;5.68;1.60;;;4.30;99.90;;;;;;5114095;28;20043;-60
2023/12/12 02:56:54;;;;;;;6.13;1.73;;;4.20;99.90;;;;;;5114840;28;20096;-60
2023/12/12 02:59:20;;;;;;;5.80;2.10;;;4.30;99.90;;;;;;5130447;28;20063;-60
2023/12/12 03:01:48;;;;;;;5.03;2.05;;;4.20;99.90;;;;;;5114691;28;20035;-60
2023/12/12 03:04:13;;;;;;;4.97;2.30;;;4.20;99.90;;;;;;5113937;28;20043;-60
2023/12/12 03:06:39;;;;;;;8.52;2.90;;;4.20;99.90;;;;;;5113657;28;20437;-60
2023/12/12 03:09:04;;;;;;;7.25;2.50;;;4.10;99.90;;;;;;5114647;28;20039;-60
2023/12/12 03:11:30;;;;;;;7.35;2.28;;;4.10;99.90;;;;;;5113775;28;20039;-60
2023/12/12 03:13:56;;;;;;;7.07;2.50;;;4.10;99.90;;;;;;5116238;27;20043;-60
2023/12/12 03:16:22;;;;;;;6.88;2.38;;;4.00;99.90;;;;;;5118360;27;20134;-60
2023/12/12 03:18:48;;;;;;;5.97;2.92;;;4.00;99.90;;;;;;5136281;27;20096;-60
2023/12/12 03:21:13;;;;;;;4.25;2.05;;;4.10;99.90;;;;;;5118763;27;20480;-60
2023/12/12 03:23:39;;;;;;;5.53;1.90;;;4.10;99.90;;;;;;5101088;27;20076;-60
2023/12/12 03:26:08;;;;;;;4.65;1.73;;;4.00;99.90;;;;;;5118430;27;20083;-60
2023/12/12 03:28:34;;;;;;;7.88;2.15;;;4.00;99.90;;;;;;5117263;27;20502;-60
2023/12/12 03:31:01;;;;;;;4.10;1.75;;;3.90;99.90;;;;;;5118657;27;20039;-60
2023/12/12 03:33:27;;;;;;;4.65;1.63;;;3.90;99.90;;;;;;5100440;27;20047;-60
2023/12/12 03:35:53;;;;;;;5.22;1.70;;;3.90;99.90;;;;;;5118345;27;20050;-60
2023/12/12 03:38:18;;;;;;;5.43;1.60;;;3.90;99.90;;;;;;5117516;27;20035;-60
2023/12/12 03:40:44;;;;;;;4.55;1.52;;;3.90;99.90;;;;;;5117212;27;20368;-60
2023/12/12 03:43:09;;;;;;;3.83;1.50;;;3.90;99.90;;;;;;5117246;27;20039;-60
2023/12/12 03:45:35;;;;;;;4.97;1.60;;;3.90;99.90;;;;;;5117426;27;20035;-60
2023/12/12 03:48:01;;;;;;;5.82;2.13;;;4.00;99.90;;;;;;5117757;27;20039;-61
2023/12/12 03:50:26;;;;;;;4.95;1.63;;;4.00;99.90;;;;;;5117050;27;20410;-60
2023/12/12 03:52:52;;;;;;;3.72;1.45;;;3.90;99.90;;;;;;5117342;27;20502;-60
2023/12/12 03:55:18;;;;;;;4.60;1.80;;;3.90;99.90;;;;;;5099830;27;20092;-60
2023/12/12 03:57:43;;;;;;;7.28;1.90;;;3.90;99.90;;;;;;5116699;27;20039;-60
2023/12/12 04:00:10;;;;;;;3.45;1.35;;;3.80;99.90;;;;;;5116989;27;20054;-60
2023/12/12 04:02:36;;;;;;;14.30;1.90;;;3.70;99.90;;;;;;5100209;27;20035;-60
2023/12/12 04:05:03;;;;;;;4.50;1.70;;;3.70;99.90;;;;;;5134434;27;20043;-60
2023/12/12 04:07:29;;;;;;;4.38;1.50;;;3.80;99.90;;;;;;5134089;27;20054;-60
2023/12/12 04:09:54;;;;;;;3.92;1.40;;;3.70;99.90;;;;;;5134991;27;20035;-61
2023/12/12 04:12:20;;;;;;;6.22;1.60;;;3.70;99.90;;;;;;5133983;27;20096;-60
2023/12/12 04:14:46;;;;;;;5.90;2.00;;;3.70;99.90;;;;;;5135166;27;20043;-60
2023/12/12 04:17:12;;;;;;;4.97;1.90;;;3.70;99.90;;;;;;5133390;27;20382;-60
2023/12/12 04:19:38;;;;;;;6.85;1.75;;;3.70;99.90;;;;;;5135295;27;20035;-60
2023/12/12 04:22:04;;;;;;;4.57;2.00;;;3.70;99.90;;;;;;5133646;27;20460;-60
2023/12/12 04:24:29;;;;;;;5.60;1.95;;;3.70;99.90;;;;;;5115198;28;20031;-60
2023/12/12 04:26:55;;;;;;;7.50;1.92;;;3.70;99.90;;;;;;5117260;27;20043;-60
2023/12/12 04:29:21;;;;;;;5.72;1.70;;;3.80;99.90;;;;;;5134558;27;20027;-60
2023/12/12 04:31:50;;;;;;;5.28;1.90;;;3.70;99.90;;;;;;5126557;27;20358;-60
2023/12/12 04:34:15;;;;;;;5.95;1.95;;;3.80;99.90;;;;;;5133596;27;20592;-60
2023/12/12 04:36:41;;;;;;;6.15;2.08;;;3.80;99.90;;;;;;5133278;27;20047;-60
2023/12/12 04:39:15;;;;;;;4.75;1.80;;;3.80;99.90;;;;;;5133456;27;20376;-60
2023/12/12 04:41:41;;;;;;;5.80;2.00;;;3.90;99.90;;;;;;5133373;27;20068;-60
2023/12/12 04:44:08;;;;;;;6.18;1.95;;;3.90;99.90;;;;;;5132964;27;20035;-60
2023/12/12 04:46:34;;;;;;;5.45;1.92;;;4.00;99.90;;;;;;5133056;27;20043;-60
2023/12/12 04:49:00;;;;;;;7.38;2.50;;;4.00;99.90;;;;;;5133784;27;20043;-60
2023/12/12 04:51:26;;;;;;;13.85;2.58;;;4.10;99.90;;;;;;5132954;27;20039;-60
2023/12/12 04:53:52;;;;;;;6.15;2.33;;;4.10;99.90;;;;;;5132918;27;20118;-60
2023/12/12 04:56:17;;;;;;;6.65;2.60;;;4.10;99.90;;;;;;5132978;27;20039;-60
2023/12/12 04:58:43;;;;;;;6.07;2.60;;;4.20;99.90;;;;;;5131862;27;20039;-60
2023/12/12 05:01:09;;;;;;;5.68;2.28;;;4.20;99.90;;;;;;5123002;27;20426;-60
2023/12/12 05:03:34;;;;;;;7.68;3.00;;;4.20;99.90;;;;;;5116280;27;20495;-60
2023/12/12 05:06:00;;;;;;;7.05;2.85;;;4.20;99.90;;;;;;5115293;27;20039;-60
2023/12/12 05:08:26;;;;;;;7.78;2.78;;;4.20;99.90;;;;;;5098917;27;20452;-61
2023/12/12 05:10:52;;;;;;;6.43;2.45;;;4.30;99.90;;;;;;5115852;27;20043;-60
2023/12/12 05:13:18;;;;;;;6.75;2.40;;;4.30;99.90;;;;;;5104674;27;20068;-60
2023/12/12 05:15:45;;;;;;;6.60;2.58;;;4.30;99.90;;;;;;5122061;27;20040;-60
2023/12/12 05:18:10;;;;;;;11.40;2.95;;;4.30;99.90;;;;;;5133921;27;20543;-60
2023/12/12 05:20:36;;;;;;;14.13;6.07;;;4.30;99.90;;;;;;5115045;27;20075;-61
2023/12/12 05:23:02;;;;;;;10.77;7.32;;;4.40;99.90;;;;;;5134416;27;20075;-60
2023/12/12 05:25:27;;;;;;;10.77;6.45;;;4.40;99.90;;;;;;5133765;27;20118;-60
2023/12/12 05:27:53;;;;;;;21.20;8.23;;;4.40;99.90;;;;;;5097426;27;20072;-60
2023/12/12 05:30:19;;;;;;;10.55;7.18;;;4.40;99.90;;;;;;5132512;27;20035;-60
2023/12/12 05:32:45;;;;;;;13.95;8.82;;;4.40;99.90;;;;;;5133576;27;20042;-60
2023/12/12 05:35:10;;;;;;;11.65;7.38;;;4.40;99.90;;;;;;5114711;27;20047;-60
2023/12/12 05:37:36;;;;;;;10.00;6.00;;;4.40;99.90;;;;;;5114007;27;20031;-60
2023/12/12 05:40:04;;;;;;;8.68;5.78;;;4.30;99.90;;;;;;5115234;27;20035;-60
2023/12/12 05:42:30;;;;;;;9.57;5.18;;;4.40;99.90;;;;;;5114278;27;20036;-60
2023/12/12 05:44:56;;;;;;;15.68;9.10;;;4.30;99.90;;;;;;5115454;27;20049;-60
2023/12/12 05:47:22;;;;;;;13.77;8.88;;;4.30;99.90;;;;;;5114841;27;20042;-60
2023/12/12 05:49:47;;;;;;;12.65;7.00;;;4.30;99.90;;;;;;5114404;27;20039;-60
2023/12/12 05:52:14;;;;;;;13.95;7.43;;;4.30;99.90;;;;;;5098237;27;20043;-60
2023/12/12 05:54:40;;;;;;;9.43;5.13;;;4.20;99.90;;;;;;5115069;27;20065;-60
2023/12/12 05:57:05;;;;;;;9.48;5.60;;;4.30;99.90;;;;;;5114483;27;20475;-60
2023/12/12 05:59:31;;;;;;;9.77;5.53;;;4.20;99.90;;;;;;5114532;27;20039;-60
2023/12/12 06:01:57;;;;;;;9.80;4.80;;;4.20;99.90;;;;;;5114434;27;20476;-60
2023/12/12 06:04:23;;;;;;;12.13;4.82;;;4.10;99.90;;;;;;5114660;27;20039;-60
2023/12/12 06:06:48;;;;;;;11.65;5.55;;;4.10;99.90;;;;;;5133233;27;20043;-60
2023/12/12 06:09:16;;;;;;;12.57;5.57;;;4.10;99.90;;;;;;5097087;28;20416;-60
2023/12/12 06:11:43;;;;;;;9.40;4.72;;;4.00;99.90;;;;;;5114627;27;20076;-60
2023/12/12 06:14:09;;;;;;;9.88;5.32;;;4.00;99.90;;;;;;5114923;28;20118;-60
2023/12/12 06:16:35;;;;;;;13.80;5.70;;;4.00;99.90;;;;;;5096837;28;20204;-60
2023/12/12 06:19:04;;;;;;;9.90;5.05;;;4.00;99.90;;;;;;5115023;28;20500;-60
2023/12/12 06:21:33;;;;;;;11.80;5.50;;;4.00;99.90;;;;;;5114296;28;20047;-60
2023/12/12 06:24:02;;;;;;;10.10;5.47;;;4.00;99.90;;;;;;5114407;28;20031;-60
2023/12/12 06:26:29;;;;;;;8.18;4.50;;;3.90;99.90;;;;;;5114546;28;20092;-60
2023/12/12 06:28:54;;;;;;;10.73;6.20;;;4.00;99.90;;;;;;5114832;28;20046;-60
2023/12/12 06:31:21;;;;;;;11.65;5.65;;;4.00;99.90;;;;;;5097473;28;20460;-60
2023/12/12 06:33:47;;;;;;;13.38;5.40;;;4.10;99.90;;;;;;5114851;28;20460;-60
2023/12/12 06:36:12;;;;;;;9.98;5.38;;;4.00;99.90;;;;;;5096894;28;20086;-60
2023/12/12 06:38:38;;;;;;;11.15;6.22;;;4.10;99.90;;;;;;5114104;28;20045;-60
2023/12/12 06:41:04;;;;;;;9.57;5.15;;;4.20;99.90;;;;;;5114522;28;20035;-60
2023/12/12 06:43:31;;;;;;;10.40;5.40;;;4.20;99.90;;;;;;5132255;28;20046;-60
2023/12/12 06:45:57;;;;;;;14.75;5.10;;;4.20;99.90;;;;;;5114668;28;20047;-60
2023/12/12 06:48:28;;;;;;;15.02;6.28;;;4.20;99.90;;;;;;5128270;27;20055;-60
2023/12/12 06:50:54;;;;;;;10.07;6.22;;;4.20;99.90;;;;;;5127463;27;20369;-60
2023/12/12 06:53:20;;;;;;;13.30;7.32;;;4.30;99.90;;;;;;5117653;27;20403;-60
2023/12/12 06:55:47;;;;;;;15.30;7.72;;;4.30;99.90;;;;;;5118185;27;20043;-60
2023/12/12 06:58:16;;;;;;;10.55;6.38;;;4.30;99.90;;;;;;5117690;27;20484;-60
2023/12/12 07:00:42;;;;;;;12.25;6.03;;;4.30;99.90;;;;;;5101004;27;20408;-60
2023/12/12 07:03:10;;;;;;;10.63;5.10;;;4.40;99.90;;;;;;5118454;27;20130;-60
2023/12/12 07:05:36;;;;;;;13.48;6.55;;;4.30;99.90;;;;;;5117301;27;20043;-60
2023/12/12 07:08:03;;;;;;;13.20;6.60;;;4.30;99.90;;;;;;5118768;27;20376;-60
2023/12/12 07:10:29;;;;;;;12.93;6.18;;;4.30;99.90;;;;;;5118062;27;20046;-60
2023/12/12 07:12:55;;;;;;;13.68;7.32;;;4.20;99.90;;;;;;5117742;27;20054;-60
2023/12/12 07:15:21;;;;;;;14.90;6.78;;;4.30;99.90;;;;;;5118013;27;20496;-60
2023/12/12 07:17:47;;;;;;;13.18;6.25;;;4.30;99.90;;;;;;5117746;27;20051;-60
2023/12/12 07:20:12;;;;;;;13.32;6.20;;;4.20;99.90;;;;;;5135706;27;20376;-60
2023/12/12 07:22:38;;;;;;;13.30;6.72;;;4.30;99.90;;;;;;5117776;27;20376;-60
2023/12/12 07:25:05;;;;;;;16.15;7.25;;;4.30;99.90;;;;;;5117927;27;20120;-60
2023/12/12 07:27:31;;;;;;;13.25;6.55;;;4.30;99.90;;;;;;5116794;27;20054;-60
2023/12/12 07:29:57;;;;;;;19.75;7.07;;;4.30;99.90;;;;;;5100908;27;20118;-60
2023/12/12 07:32:24;;;;;;;13.48;7.45;;;4.20;99.90;;;;;;5117339;27;20533;-60
2023/12/12 07:34:49;;;;;;;16.05;6.90;;;4.30;99.90;;;;;;5117056;27;20099;-60
2023/12/12 07:37:15;;;;;;;18.98;7.97;;;4.40;99.90;;;;;;5117588;27;20468;-61
2023/12/12 07:39:41;;;;;;;21.70;9.32;;;4.40;99.90;;;;;;5117470;27;20417;-60
2023/12/12 07:42:06;;;;;;;22.23;9.77;;;4.50;99.90;;;;;;5117375;27;20506;-60
2023/12/12 07:44:32;;;;;;;24.77;11.35;;;4.50;99.90;;;;;;5116849;27;20073;-60
2023/12/12 07:47:01;;;;;;;26.75;10.57;;;4.50;99.90;;;;;;5118617;27;20483;-60
2023/12/12 07:49:27;;;;;;;30.38;11.05;;;4.60;99.90;;;;;;5099908;27;20035;-60
2023/12/12 07:51:54;;;;;;;48.80;16.08;;;4.60;99.90;;;;;;5129123;27;20100;-60
2023/12/12 07:54:20;;;;;;;42.95;15.73;;;4.70;99.90;;;;;;5100016;27;20077;-60
2023/12/12 07:56:46;;;;;;;38.70;11.65;;;4.70;99.90;;;;;;5135108;27;20437;-60
2023/12/12 07:59:12;;;;;;;26.35;11.73;;;4.70;99.90;;;;;;5134451;27;20077;-61
2023/12/12 08:01:39;;;;;;;47.05;14.70;;;4.70;99.90;;;;;;5112659;27;20078;-60
2023/12/12 08:04:05;;;;;;;41.40;16.17;;;4.70;99.90;;;;;;5106660;27;20078;-60
2023/12/12 08:06:32;;;;;;;34.67;15.95;;;4.70;99.90;;;;;;5114391;27;20043;-60
2023/12/12 08:08:59;;;;;;;83.68;35.25;;;4.80;99.90;;;;;;5113889;27;20122;-60
2023/12/12 08:11:27;;;;;;;34.20;14.27;;;4.80;99.90;;;;;;5114629;27;20507;-60
2023/12/12 08:13:54;;;;;;;50.08;17.48;;;4.80;99.90;;;;;;5114003;27;20043;-60
2023/12/12 08:16:21;;;;;;;34.05;12.52;;;4.90;99.90;;;;;;5114113;27;20043;-60
2023/12/12 08:18:46;;;;;;;36.30;13.13;;;4.90;99.90;;;;;;5119126;27;20058;-60
2023/12/12 08:21:12;;;;;;;30.20;12.63;;;4.90;99.90;;;;;;5112525;27;20558;-60
2023/12/12 08:23:41;;;;;;;27.27;12.30;;;4.90;99.90;;;;;;5130193;27;20035;-60
2023/12/12 08:26:07;;;;;;;58.80;18.45;;;5.00;99.90;;;;;;5113993;27;20051;-60
2023/12/12 08:28:33;;;;;;;38.35;14.27;;;5.00;99.90;;;;;;5096673;27;20045;-60
2023/12/12 08:31:00;;;;;;;46.42;16.35;;;5.00;99.90;;;;;;5096714;27;20035;-60
2023/12/12 08:33:26;;;;;;;39.08;14.43;;;5.10;99.90;;;;;;5113863;27;20043;-60
2023/12/12 08:35:51;;;;;;;68.25;18.65;;;5.10;99.90;;;;;;5113397;27;20046;-60
2023/12/12 08:38:17;;;;;;;79.90;25.17;;;5.10;99.90;;;;;;5096474;27;20408;-60
2023/12/12 08:40:43;;;;;;;34.83;13.90;;;5.20;99.90;;;;;;5113890;27;20031;-60
2023/12/12 08:43:08;;;;;;;47.67;14.98;;;5.20;99.90;;;;;;5113400;27;20042;-60
2023/12/12 08:45:34;;;;;;;63.20;19.52;;;5.20;99.90;;;;;;5113040;27;20047;-60
2023/12/12 08:48:00;;;;;;;40.15;13.90;;;5.20;99.90;;;;;;5126792;27;20039;-60
2023/12/12 08:50:25;;;;;;;78.95;21.50;;;5.20;99.90;;;;;;5129771;27;20104;-60
2023/12/12 08:52:51;;;;;;;25.10;9.80;;;5.20;99.90;;;;;;5113126;27;20392;-61
2023/12/12 08:55:16;;;;;;;40.50;14.27;;;5.20;99.90;;;;;;5113591;27;20568;-61
2023/12/12 08:57:43;;;;;;;60.75;19.00;;;5.30;99.90;;;;;;5121977;27;20050;-61
2023/12/12 09:00:12;;;;;;;42.50;15.02;;;5.20;99.90;;;;;;5118191;27;20051;-60
2023/12/12 09:02:39;;;;;;;26.90;12.30;;;5.20;99.90;;;;;;5115661;27;20571;-60
2023/12/12 09:05:06;;;;;;;23.27;11.20;;;5.30;99.90;;;;;;5115593;27;20046;-60
2023/12/12 09:07:33;;;;;;;58.88;19.33;;;5.20;99.90;;;;;;5112948;27;20043;-60
2023/12/12 09:10:03;;;;;;;33.35;13.57;;;5.20;99.90;;;;;;5116109;27;20062;-60
2023/12/12 09:12:28;;;;;;;35.10;14.82;;;5.20;99.90;;;;;;5114699;27;20407;-60
2023/12/12 09:14:54;;;;;;;70.22;22.73;;;5.30;99.90;;;;;;5098535;27;20042;-60
2023/12/12 09:17:20;;;;;;;45.95;17.00;;;5.30;99.90;;;;;;5133244;27;20043;-60
2023/12/12 09:19:46;;;;;;;37.38;17.13;;;5.30;99.90;;;;;;5098125;27;20143;-60
2023/12/12 09:22:12;;;;;;;61.15;21.65;;;5.20;99.90;;;;;;5115546;27;20118;-60
2023/12/12 09:24:38;;;;;;;32.90;14.27;;;5.30;99.90;;;;;;5115015;27;20035;-60
2023/12/12 09:27:04;;;;;;;24.40;10.68;;;5.20;99.90;;;;;;5099413;27;20054;-60
2023/12/12 09:29:29;;;;;;;40.05;15.50;;;5.20;99.90;;;;;;5115145;27;20035;-60
2023/12/12 09:31:56;;;;;;;29.38;13.65;;;5.20;99.90;;;;;;5114721;27;20070;-61
2023/12/12 09:34:23;;;;;;;42.50;17.35;;;5.30;99.90;;;;;;5098021;27;20119;-60
2023/12/12 09:36:50;;;;;;;35.20;13.07;;;5.30;99.90;;;;;;5114532;27;20043;-61
2023/12/12 09:39:17;;;;;;;30.48;11.45;;;5.30;99.90;;;;;;5115040;27;20039;-61
2023/12/12 09:41:49;;;;;;;44.72;15.32;;;5.20;99.90;;;;;;5114720;27;20070;-61
2023/12/12 09:44:19;;;;;;;35.20;13.30;;;5.30;99.90;;;;;;5115001;27;20042;-61
2023/12/12 09:46:46;;;;;;;47.53;16.63;;;5.20;99.90;;;;;;5098235;27;20365;-60
2023/12/12 09:49:13;;;;;;;56.42;26.13;;;5.30;99.90;;;;;;5114393;27;20495;-60
2023/12/12 09:51:41;;;;;;;37.95;16.83;;;5.20;99.90;;;;;;5122360;27;20038;-60
2023/12/12 09:54:07;;;;;;;70.70;30.10;;;5.30;99.90;;;;;;5131660;27;20035;-61
2023/12/12 09:56:36;;;;;;;45.75;17.63;;;5.20;99.90;;;;;;5131675;27;20126;-61
2023/12/12 09:59:04;;;;;;;34.42;15.85;;;5.30;99.90;;;;;;5132210;27;20057;-61
2023/12/12 10:01:33;;;;;;;40.25;17.27;;;5.30;99.90;;;;;;5131604;27;20461;-61
2023/12/12 10:04:05;;;;;;;37.78;16.38;;;5.20;99.90;;;;;;5114948;27;20035;-61
2023/12/12 10:06:42;;;;;;;31.35;17.00;;;5.20;99.90;;;;;;5131873;27;20035;-61
2023/12/12 10:09:09;;;;;;;31.02;13.98;;;5.20;99.90;;;;;;5131485;27;20480;-61
2023/12/12 10:11:35;;;;;;;31.02;15.18;;;5.30;99.90;;;;;;5132227;27;20367;-61
2023/12/12 10:14:00;;;;;;;32.03;14.43;;;5.30;99.90;;;;;;5114876;27;20031;-61
2023/12/12 10:16:27;;;;;;;43.50;18.80;;;5.30;99.90;;;;;;5114180;27;20045;-60
2023/12/12 10:18:54;;;;;;;37.67;16.38;;;5.40;99.90;;;;;;5131267;27;20050;-61
2023/12/12 10:21:21;;;;;;;41.33;19.05;;;5.40;99.90;;;;;;5097559;28;20118;-60
2023/12/12 10:23:48;;;;;;;40.10;15.02;;;5.40;99.90;;;;;;5119109;27;20042;-60
2023/12/12 10:26:15;;;;;;;31.88;16.05;;;5.40;99.90;;;;;;5121568;27;20046;-60
2023/12/12 10:28:41;;;;;;;35.92;17.42;;;5.40;99.90;;;;;;5121111;27;20039;-60
2023/12/12 10:31:08;;;;;;;38.17;18.17;;;5.40;99.90;;;;;;5121368;27;20064;-60
2023/12/12 10:33:35;;;;;;;36.90;19.95;;;5.40;99.90;;;;;;5121380;27;20054;-60
2023/12/12 10:36:03;;;;;;;30.58;18.15;;;5.40;99.90;;;;;;5121256;27;20047;-61
2023/12/12 10:38:29;;;;;;;29.98;17.63;;;5.40;99.90;;;;;;5120987;27;20372;-61
2023/12/12 10:41:12;;;;;;;27.60;14.93;;;5.40;99.90;;;;;;5121481;27;20088;-61
2023/12/12 10:43:40;;;;;;;40.03;21.63;;;5.40;99.90;;;;;;5120702;27;20120;-60
2023/12/12 10:46:09;;;;;;;33.55;18.50;;;5.40;99.90;;;;;;5121546;27;20043;-61
2023/12/12 10:48:40;;;;;;;27.10;17.80;;;5.50;99.90;;;;;;5122283;27;20396;-61
2023/12/12 10:51:07;;;;;;;40.53;21.38;;;5.50;99.90;;;;;;5121392;27;20536;-61
2023/12/12 10:53:35;;;;;;;34.88;19.33;;;5.50;99.90;;;;;;5104300;27;20078;-61
2023/12/12 10:56:01;;;;;;;58.58;27.45;;;5.40;99.90;;;;;;5103885;27;20042;-60
2023/12/12 10:58:27;;;;;;;43.85;23.30;;;5.50;99.90;;;;;;5121686;27;20479;-60
2023/12/12 11:00:54;;;;;;;39.35;21.42;;;5.50;99.90;;;;;;5120828;27;20112;-60
2023/12/12 11:03:21;;;;;;;41.10;23.17;;;5.50;99.90;;;;;;5124417;27;20479;-60
2023/12/12 11:05:47;;;;;;;37.30;20.42;;;5.60;99.90;;;;;;5130448;27;20380;-60
2023/12/12 11:08:13;;;;;;;39.53;20.52;;;5.60;99.90;;;;;;5133109;27;20455;-62
2023/12/12 11:10:39;;;;;;;50.30;28.90;;;5.60;99.90;;;;;;5120892;27;20491;-60
2023/12/12 11:13:06;;;;;;;39.25;24.30;;;5.60;99.90;;;;;;5139138;27;20068;-60
2023/12/12 11:15:33;;;;;;;38.53;22.77;;;5.70;99.90;;;;;;5139000;27;20050;-60
2023/12/12 11:17:59;;;;;;;40.78;24.73;;;5.70;99.90;;;;;;5121113;27;20485;-60
2023/12/12 11:20:25;;;;;;;47.83;29.27;;;5.80;99.90;;;;;;5120530;27;20032;-60
2023/12/12 11:22:52;;;;;;;39.00;20.95;;;5.80;99.90;;;;;;5120679;27;20078;-60
2023/12/12 11:25:19;;;;;;;36.17;22.75;;;5.90;99.90;;;;;;5120779;27;20422;-60
2023/12/12 11:27:47;;;;;;;38.25;22.35;;;5.80;99.90;;;;;;5120244;27;20047;-60
2023/12/12 11:30:14;;;;;;;39.30;21.77;;;6.00;99.90;;;;;;5120546;27;20062;-60
2023/12/12 11:32:41;;;;;;;30.13;16.73;;;6.00;99.90;;;;;;5133075;27;20384;-60
2023/12/12 11:35:29;;;;;;;31.33;17.88;;;6.00;99.90;;;;;;5123369;27;20439;-60
2023/12/12 11:37:56;;;;;;;26.08;15.98;;;6.00;99.90;;;;;;5117826;27;20414;-60
2023/12/12 11:40:24;;;;;;;29.02;15.57;;;6.00;99.90;;;;;;5117162;27;20490;-60
2023/12/12 11:42:51;;;;;;;32.40;17.70;;;6.10;99.90;;;;;;5117514;27;20383;-60
2023/12/12 11:45:34;;;;;;;31.60;17.92;;;6.10;99.90;;;;;;5117093;27;20446;-60
2023/12/12 11:48:06;;;;;;;34.22;18.90;;;6.10;99.90;;;;;;5116437;27;20065;-60
2023/12/12 11:50:33;;;;;;;31.00;19.40;;;6.10;99.90;;;;;;5117278;27;20098;-60
2023/12/12 11:53:01;;;;;;;32.55;18.42;;;6.10;99.90;;;;;;5117504;27;20369;-61
2023/12/12 11:55:31;;;;;;;30.27;17.80;;;6.10;99.90;;;;;;5116702;27;20051;-60
2023/12/12 11:58:07;;;;;;;27.88;16.73;;;6.10;99.90;;;;;;5117249;27;20043;-60
2023/12/12 12:00:34;;;;;;;29.67;16.98;;;6.10;99.90;;;;;;5116498;27;20503;-60
2023/12/12 12:03:01;;;;;;;26.15;15.63;;;6.10;99.90;;;;;;5129806;27;20070;-60
2023/12/12 12:05:26;;;;;;;35.38;22.15;;;6.20;99.90;;;;;;5116967;27;20042;-60
2023/12/12 12:07:52;;;;;;;27.05;15.55;;;6.10;99.90;;;;;;5122754;27;20062;-60
2023/12/12 12:10:18;;;;;;;25.17;16.33;;;6.10;99.90;;;;;;5116700;27;20380;-60
2023/12/12 12:12:51;;;;;;;31.63;19.10;;;6.20;99.90;;;;;;5116844;27;20043;-60
2023/12/12 12:15:17;;;;;;;31.77;15.82;;;6.20;99.90;;;;;;5116173;27;20391;-60
2023/12/12 12:17:43;;;;;;;32.50;20.25;;;6.20;99.90;;;;;;5119099;27;20035;-60
2023/12/12 12:20:09;;;;;;;30.17;17.23;;;6.20;99.90;;;;;;5116753;27;20503;-61
2023/12/12 12:22:39;;;;;;;28.63;15.82;;;6.20;99.90;;;;;;5099092;27;20066;-61
2023/12/12 12:25:06;;;;;;;30.92;18.52;;;6.20;99.90;;;;;;5116642;27;20058;-60
2023/12/12 12:27:52;;;;;;;32.55;17.70;;;6.30;99.90;;;;;;5115308;27;20495;-60
2023/12/12 12:30:18;;;;;;;27.92;16.52;;;6.30;99.90;;;;;;5099080;27;20495;-60
2023/12/12 12:32:57;;;;;;;33.55;16.50;;;6.30;99.90;;;;;;5115947;27;20035;-60
2023/12/12 12:35:23;;;;;;;32.58;16.45;;;6.40;99.90;;;;;;5115798;27;20078;-60
2023/12/12 12:37:49;;;;;;;33.35;17.00;;;6.40;99.90;;;;;;5115703;27;20078;-61
2023/12/12 12:40:34;;;;;;;30.85;16.17;;;6.40;99.90;;;;;;5116372;27;20035;-61
2023/12/12 12:43:02;;;;;;;29.10;18.05;;;6.40;99.90;;;;;;5098558;27;20037;-61
2023/12/12 12:45:27;;;;;;;29.38;17.63;;;6.50;99.90;;;;;;5115775;27;20578;-61